createdAt,value
2023-01-30T00:01:20.937Z,20.70
2023-01-30T00:04:48.252Z,21.10
2023-01-30T00:08:15.505Z,19.50
2023-01-30T00:11:42.685Z,19.70
2023-01-30T00:15:11.535Z,19.30
2023-01-30T00:18:39.363Z,16.40
2023-01-30T00:22:06.488Z,18.00
2023-01-30T00:25:33.952Z,19.10
2023-01-30T00:29:01.136Z,17.10
2023-01-30T00:32:31.305Z,16.90
2023-01-30T00:35:59.601Z,18.00
2023-01-30T00:39:28.611Z,18.00
2023-01-30T00:43:16.143Z,17.20
2023-01-30T00:47:01.125Z,16.40
2023-01-30T00:50:42.434Z,16.20
2023-01-30T00:54:12.343Z,17.00
2023-01-30T00:57:39.727Z,15.50
2023-01-30T01:01:07.386Z,16.50
2023-01-30T01:04:43.286Z,16.10
2023-01-30T01:08:13.267Z,14.60
2023-01-30T01:11:40.460Z,17.40
2023-01-30T01:15:09.253Z,15.20
2023-01-30T01:18:37.069Z,15.40
2023-01-30T01:22:04.344Z,15.60
2023-01-30T01:25:31.452Z,15.70
2023-01-30T01:28:59.719Z,12.90
2023-01-30T01:32:27.863Z,14.70
2023-01-30T01:35:58.657Z,13.20
2023-01-30T01:39:46.288Z,13.90
2023-01-30T01:43:20.186Z,14.20
2023-01-30T01:46:50.723Z,14.60
2023-01-30T01:50:21.164Z,14.70
2023-01-30T01:53:53.365Z,13.90
2023-01-30T01:57:25.777Z,13.20
2023-01-30T02:00:54.305Z,12.50
2023-01-30T02:04:46.304Z,14.00
2023-01-30T02:08:16.069Z,13.80
2023-01-30T02:11:49.089Z,14.00
2023-01-30T02:15:16.821Z,14.30
2023-01-30T02:18:45.589Z,14.30
2023-01-30T02:22:33.113Z,12.30
2023-01-30T02:26:29.966Z,13.00
2023-01-30T02:30:29.056Z,13.40
2023-01-30T02:34:09.573Z,14.10
2023-01-30T02:37:50.565Z,14.20
2023-01-30T02:41:26.446Z,14.20
2023-01-30T02:45:03.305Z,11.80
2023-01-30T02:48:36.394Z,14.40
2023-01-30T02:52:05.136Z,13.70
2023-01-30T02:55:32.882Z,14.80
2023-01-30T02:59:06.092Z,11.40
2023-01-30T03:03:07.531Z,13.20
2023-01-30T03:06:54.273Z,13.00
2023-01-30T03:10:39.464Z,12.20
2023-01-30T03:14:15.896Z,14.30
2023-01-30T03:17:46.433Z,14.20
2023-01-30T03:21:15.762Z,15.10
2023-01-30T03:24:43.193Z,14.80
2023-01-30T03:28:12.120Z,14.70
2023-01-30T03:31:39.301Z,14.10
2023-01-30T03:35:09.431Z,14.50
2023-01-30T03:38:39.885Z,14.70
2023-01-30T03:42:08.000Z,15.40
2023-01-30T03:45:35.235Z,14.00
2023-01-30T03:49:05.734Z,14.50
2023-01-30T03:52:35.447Z,14.60
2023-01-30T03:56:08.904Z,14.60
2023-01-30T03:59:36.226Z,16.30
2023-01-30T04:03:07.811Z,14.40
2023-01-30T04:06:36.660Z,17.00
2023-01-30T04:13:30.719Z,15.40
2023-01-30T04:17:00.597Z,16.10
2023-01-30T04:20:54.071Z,16.50
2023-01-30T04:24:25.840Z,17.60
2023-01-30T04:27:53.162Z,18.70
2023-01-30T04:31:27.615Z,15.90
2023-01-30T04:35:18.158Z,15.90
2023-01-30T04:38:45.523Z,14.20
2023-01-30T04:42:12.862Z,16.60
2023-01-30T04:45:47.647Z,16.70
2023-01-30T04:49:15.320Z,17.40
2023-01-30T04:52:43.528Z,16.90
2023-01-30T04:56:11.436Z,17.60
2023-01-30T04:59:38.588Z,16.90
2023-01-30T05:03:07.595Z,18.20
2023-01-30T05:06:36.498Z,18.00
2023-01-30T05:10:03.831Z,17.80
2023-01-30T05:13:31.176Z,18.50
2023-01-30T05:16:58.212Z,17.50
2023-01-30T05:20:25.406Z,18.00
2023-01-30T05:23:54.314Z,20.10
2023-01-30T05:27:21.468Z,19.10
2023-01-30T05:30:48.555Z,19.00
2023-01-30T05:34:15.671Z,14.60
2023-01-30T05:37:42.904Z,17.80
2023-01-30T05:44:38.968Z,21.10
2023-01-30T05:48:06.744Z,19.20
2023-01-30T05:51:34.241Z,20.60
2023-01-30T05:55:01.362Z,19.80
2023-01-30T05:58:29.362Z,20.40
2023-01-30T06:01:56.573Z,21.30
2023-01-30T06:05:23.570Z,20.30
2023-01-30T06:08:53.971Z,19.90
2023-01-30T06:12:21.080Z,19.90
2023-01-30T06:15:48.386Z,19.20
2023-01-30T06:19:15.850Z,17.90
2023-01-30T06:22:42.960Z,19.70
2023-01-30T06:26:10.590Z,18.50
2023-01-30T06:29:37.763Z,20.90
2023-01-30T06:33:05.127Z,18.80
2023-01-30T06:36:32.384Z,19.10
2023-01-30T06:39:59.840Z,19.50
2023-01-30T06:43:30.543Z,21.40
2023-01-30T06:46:57.861Z,19.00
2023-01-30T06:50:27.085Z,20.30
2023-01-30T06:53:54.331Z,27.20
2023-01-30T06:57:21.213Z,30.20
2023-01-30T07:00:48.178Z,24.50
2023-01-30T07:04:15.402Z,20.00
2023-01-30T07:07:42.535Z,19.70
2023-01-30T07:11:09.875Z,22.60
2023-01-30T07:14:37.062Z,25.10
2023-01-30T07:18:04.381Z,25.00
2023-01-30T07:21:31.315Z,22.70
2023-01-30T07:24:58.480Z,23.30
2023-01-30T07:28:25.736Z,22.00
2023-01-30T07:31:53.976Z,20.70
2023-01-30T07:35:22.181Z,19.90
2023-01-30T07:38:50.899Z,21.30
2023-01-30T07:42:17.986Z,20.20
2023-01-30T07:45:47.619Z,19.80
2023-01-30T07:49:14.777Z,20.10
2023-01-30T07:52:42.003Z,16.60
2023-01-30T07:56:14.205Z,20.90
2023-01-30T07:59:41.529Z,22.10
2023-01-30T08:03:12.748Z,21.40
2023-01-30T08:06:40.127Z,21.10
2023-01-30T08:10:11.629Z,19.20
2023-01-30T08:13:41.585Z,17.50
2023-01-30T08:17:08.619Z,19.80
2023-01-30T08:20:35.983Z,18.20
2023-01-30T08:24:03.292Z,17.60
2023-01-30T08:27:30.332Z,17.20
2023-01-30T08:30:58.301Z,17.70
2023-01-30T08:34:25.441Z,15.10
2023-01-30T08:37:52.396Z,15.50
2023-01-30T08:41:19.338Z,15.40
2023-01-30T08:44:46.420Z,14.20
2023-01-30T08:48:13.637Z,14.90
2023-01-30T08:51:41.111Z,15.70
2023-01-30T08:55:09.463Z,16.10
2023-01-30T08:58:36.502Z,12.90
2023-01-30T09:02:03.821Z,18.60
2023-01-30T09:05:31.209Z,17.30
2023-01-30T09:08:59.896Z,19.00
2023-01-30T09:12:27.252Z,16.60
2023-01-30T09:15:54.517Z,19.30
2023-01-30T09:19:21.419Z,17.30
2023-01-30T09:22:48.395Z,18.60
2023-01-30T09:26:15.514Z,19.00
2023-01-30T09:29:44.354Z,19.60
2023-01-30T09:33:12.619Z,19.10
2023-01-30T09:36:40.558Z,19.80
2023-01-30T09:40:14.773Z,28.90
2023-01-30T09:43:59.666Z,22.60
2023-01-30T09:47:38.812Z,20.10
2023-01-30T09:51:17.037Z,19.30
2023-01-30T09:54:46.714Z,18.60
2023-01-30T10:01:55.532Z,14.80
2023-01-30T10:05:23.327Z,16.30
2023-01-30T10:08:57.327Z,17.20
2023-01-30T10:12:39.746Z,16.90
2023-01-30T10:16:15.247Z,15.50
2023-01-30T10:20:09.189Z,19.10
2023-01-30T10:23:52.480Z,19.20
2023-01-30T10:27:21.319Z,17.30
2023-01-30T10:30:50.739Z,14.50
2023-01-30T10:34:24.878Z,15.00
2023-01-30T10:37:59.719Z,15.10
2023-01-30T10:41:32.525Z,16.20
2023-01-30T10:45:16.620Z,15.60
2023-01-30T10:48:56.485Z,14.80
2023-01-30T10:56:04.992Z,15.20
2023-01-30T10:59:43.357Z,16.70
2023-01-30T11:03:20.860Z,15.90
2023-01-30T11:06:48.182Z,13.10
2023-01-30T11:10:20.382Z,14.20
2023-01-30T11:13:47.610Z,14.90
2023-01-30T11:17:19.501Z,13.90
2023-01-30T11:21:03.797Z,15.20
2023-01-30T11:24:41.293Z,14.10
2023-01-30T11:28:19.571Z,17.20
2023-01-30T11:31:54.695Z,17.90
2023-01-30T11:35:30.706Z,26.70
2023-01-30T11:39:01.647Z,16.60
2023-01-30T11:42:33.258Z,14.60
2023-01-30T11:46:01.700Z,11.80
2023-01-30T11:49:47.461Z,13.00
2023-01-30T11:53:31.279Z,12.70
2023-01-30T11:57:00.314Z,10.70
2023-01-30T12:00:41.919Z,9.90
2023-01-30T12:04:20.207Z,9.80
2023-01-30T12:07:47.720Z,9.20
2023-01-30T12:11:45.080Z,8.90
2023-01-30T12:15:24.567Z,9.00
2023-01-30T12:19:00.636Z,9.60
2023-01-30T12:22:37.283Z,7.90
2023-01-30T12:26:12.115Z,8.40
2023-01-30T12:30:01.802Z,9.80
2023-01-30T12:33:34.890Z,8.60
2023-01-30T12:37:11.172Z,10.50
2023-01-30T12:40:47.385Z,9.70
2023-01-30T12:44:33.894Z,6.90
2023-01-30T12:48:29.281Z,5.80
2023-01-30T12:52:11.194Z,6.00
2023-01-30T12:55:50.213Z,5.70
2023-01-30T12:59:23.270Z,5.50
2023-01-30T13:03:07.385Z,5.60
2023-01-30T13:06:47.524Z,6.00
2023-01-30T13:10:24.304Z,5.70
2023-01-30T13:13:57.960Z,5.70
2023-01-30T13:17:43.153Z,6.40
2023-01-30T13:21:18.116Z,7.90
2023-01-30T13:24:58.724Z,6.10
2023-01-30T13:28:30.245Z,5.90
2023-01-30T13:32:01.332Z,5.90
2023-01-30T13:35:33.014Z,6.70
2023-01-30T13:39:04.411Z,7.00
2023-01-30T13:42:39.563Z,7.20
2023-01-30T13:46:10.857Z,8.00
2023-01-30T13:49:45.889Z,9.10
2023-01-30T13:53:20.894Z,7.60
2023-01-30T13:56:53.155Z,8.00
2023-01-30T14:00:33.500Z,9.40
2023-01-30T14:04:46.262Z,9.80
2023-01-30T14:08:21.107Z,9.30
2023-01-30T14:11:58.245Z,8.80
2023-01-30T14:15:29.706Z,10.00
2023-01-30T14:18:56.889Z,8.70
2023-01-30T14:22:33.991Z,10.30
2023-01-30T14:26:01.571Z,7.50
2023-01-30T14:29:55.870Z,6.60
2023-01-30T14:33:49.489Z,6.80
2023-01-30T14:37:51.974Z,5.10
2023-01-30T14:41:28.900Z,5.90
2023-01-30T14:45:01.008Z,5.40
2023-01-30T14:48:39.602Z,4.30
2023-01-30T14:52:24.773Z,4.40
2023-01-30T14:56:02.934Z,3.80
2023-01-30T14:59:33.625Z,4.30
2023-01-30T15:03:04.598Z,3.80
2023-01-30T15:06:38.243Z,11.30
2023-01-30T15:10:15.076Z,6.10
2023-01-30T15:13:52.280Z,6.30
2023-01-30T15:17:31.317Z,6.50
2023-01-30T15:21:23.301Z,7.00
2023-01-30T15:25:12.082Z,4.40
2023-01-30T15:28:47.283Z,5.40
2023-01-30T15:32:23.197Z,5.50
2023-01-30T15:35:50.768Z,5.50
2023-01-30T15:39:23.754Z,3.90
2023-01-30T15:42:54.011Z,3.90
2023-01-30T15:46:28.998Z,4.10
2023-01-30T15:50:02.596Z,4.60
2023-01-30T15:53:33.083Z,5.10
2023-01-30T15:57:01.325Z,4.20
2023-01-30T16:00:32.965Z,10.40
2023-01-30T16:04:00.532Z,13.20
2023-01-30T16:07:28.298Z,6.60
2023-01-30T16:10:55.736Z,6.60
2023-01-30T16:14:23.961Z,6.20
2023-01-30T16:17:59.491Z,8.10
2023-01-30T16:21:29.838Z,6.90
2023-01-30T16:24:57.790Z,10.40
2023-01-30T16:28:26.160Z,10.40
2023-01-30T16:31:55.755Z,9.60
2023-01-30T16:35:33.941Z,7.30
2023-01-30T16:39:01.863Z,10.70
2023-01-30T16:42:31.109Z,10.00
2023-01-30T16:46:31.254Z,10.40
2023-01-30T16:49:59.027Z,12.70
2023-01-30T16:53:26.735Z,11.20
2023-01-30T16:56:56.881Z,8.30
2023-01-30T17:00:38.083Z,6.60
2023-01-30T17:04:08.099Z,7.30
2023-01-30T17:07:38.620Z,7.40
2023-01-30T17:11:06.930Z,6.50
2023-01-30T17:14:33.997Z,7.00
2023-01-30T17:18:01.508Z,6.10
2023-01-30T17:21:31.940Z,8.90
2023-01-30T17:25:04.446Z,5.30
2023-01-30T17:28:34.486Z,5.00
2023-01-30T17:32:02.246Z,14.60
2023-01-30T17:35:49.662Z,7.80
2023-01-30T17:39:19.309Z,13.70
2023-01-30T17:42:49.525Z,5.40
2023-01-30T17:46:17.398Z,4.50
2023-01-30T17:49:44.569Z,4.10
2023-01-30T17:53:11.599Z,3.80
2023-01-30T17:56:40.627Z,3.50
2023-01-30T18:00:12.600Z,4.50
2023-01-30T18:03:39.805Z,5.50
2023-01-30T18:07:10.039Z,4.30
2023-01-30T18:10:37.141Z,3.40
2023-01-30T18:14:06.365Z,4.10
2023-01-30T18:17:47.173Z,5.40
2023-01-30T18:21:14.827Z,7.50
2023-01-30T18:24:41.864Z,5.30
2023-01-30T18:28:11.402Z,3.80
2023-01-30T18:31:39.860Z,4.00
2023-01-30T18:35:08.560Z,4.00
2023-01-30T18:38:35.588Z,3.60
2023-01-30T18:42:03.315Z,5.80
2023-01-30T18:45:30.361Z,3.30
2023-01-30T18:48:58.429Z,2.80
2023-01-30T18:52:26.778Z,3.30
2023-01-30T18:55:53.960Z,3.20
2023-01-30T18:59:21.588Z,3.00
2023-01-30T19:02:55.307Z,3.20
2023-01-30T19:06:26.242Z,3.10
2023-01-30T19:09:53.504Z,3.20
2023-01-30T19:13:37.545Z,3.20
2023-01-30T19:17:05.115Z,3.50
2023-01-30T19:20:32.402Z,8.30
2023-01-30T19:23:59.995Z,11.30
2023-01-30T19:27:27.497Z,13.20
2023-01-30T19:30:55.617Z,8.20
2023-01-30T19:34:23.386Z,7.10
2023-01-30T19:37:53.807Z,4.10
2023-01-30T19:41:24.357Z,2.50
2023-01-30T19:44:52.112Z,1.70
2023-01-30T19:48:19.642Z,1.80
2023-01-30T19:51:47.078Z,1.90
2023-01-30T19:55:18.723Z,1.80
2023-01-30T19:58:46.283Z,1.60
2023-01-30T20:02:14.118Z,2.00
2023-01-30T20:05:41.748Z,3.00
2023-01-30T20:09:11.258Z,3.60
2023-01-30T20:12:49.942Z,4.20
2023-01-30T20:16:20.824Z,5.90
2023-01-30T20:19:48.850Z,9.20
2023-01-30T20:23:26.648Z,8.30
2023-01-30T20:26:54.420Z,9.30
2023-01-30T20:30:29.463Z,12.90
2023-01-30T20:33:57.861Z,8.60
2023-01-30T20:37:25.889Z,8.00
2023-01-30T20:40:53.353Z,7.50
2023-01-30T20:44:21.523Z,5.20
2023-01-30T20:47:48.974Z,4.50
2023-01-30T20:51:18.914Z,4.40
2023-01-30T20:54:46.825Z,4.10
2023-01-30T20:58:14.785Z,4.80
2023-01-30T21:01:43.416Z,4.10
2023-01-30T21:05:12.597Z,3.80
2023-01-30T21:08:41.618Z,3.60
2023-01-30T21:12:09.973Z,3.30
2023-01-30T21:15:38.262Z,3.70
2023-01-30T21:19:09.429Z,2.70
2023-01-30T21:22:39.162Z,3.10
2023-01-30T21:26:12.853Z,5.10
2023-01-30T21:29:40.755Z,3.10
2023-01-30T21:33:08.704Z,4.30
2023-01-30T21:36:36.734Z,3.70
2023-01-30T21:40:22.510Z,4.00
2023-01-30T21:43:51.573Z,3.90
2023-01-30T21:47:18.645Z,4.40
2023-01-30T21:50:47.265Z,3.70
2023-01-30T21:54:16.816Z,3.90
2023-01-30T21:57:44.112Z,4.80
2023-01-30T22:01:11.213Z,4.30
2023-01-30T22:04:41.704Z,4.50
2023-01-30T22:08:08.935Z,4.70
2023-01-30T22:11:37.724Z,3.70
2023-01-30T22:15:05.513Z,4.30
2023-01-30T22:18:33.689Z,4.30
2023-01-30T22:22:00.823Z,4.40
2023-01-30T22:25:28.136Z,3.90
2023-01-30T22:28:58.575Z,4.60
2023-01-30T22:32:29.282Z,6.70
2023-01-30T22:35:56.489Z,7.20
2023-01-30T22:39:26.487Z,5.70
2023-01-30T22:42:53.734Z,6.80
2023-01-30T22:46:22.195Z,6.40
2023-01-30T22:49:49.477Z,18.60
2023-01-30T22:53:16.592Z,6.40
2023-01-30T22:56:45.843Z,5.80
2023-01-30T23:00:14.460Z,4.90
2023-01-30T23:03:46.019Z,3.80
2023-01-30T23:07:14.396Z,5.30
2023-01-30T23:10:42.928Z,4.50
2023-01-30T23:14:13.428Z,4.80
2023-01-30T23:17:58.275Z,5.00
2023-01-30T23:21:27.781Z,4.60
2023-01-30T23:24:57.331Z,4.90
2023-01-30T23:28:27.669Z,4.50
2023-01-30T23:31:54.855Z,4.40
2023-01-30T23:35:24.673Z,5.50
2023-01-30T23:38:53.348Z,3.80
2023-01-30T23:42:28.459Z,4.00
2023-01-30T23:46:14.801Z,3.80
2023-01-30T23:49:44.422Z,4.40
2023-01-30T23:53:12.084Z,4.30
2023-01-30T23:56:41.818Z,3.60
